sensor_id;sensor_type;location;lat;lon;timestamp;pressure;altitude;pressure_sealevel;temperature;humidity
80102;BME280;69407;44.966;19.622;2023-06-26T00:01:14;100745.78;;;19.40;91.67
80102;BME280;69407;44.966;19.622;2023-06-26T00:03:39;100743.09;;;19.51;91.29
80102;BME280;69407;44.966;19.622;2023-06-26T00:06:05;100735.53;;;19.45;90.92
80102;BME280;69407;44.966;19.622;2023-06-26T00:08:30;100740.53;;;19.61;90.07
80102;BME280;69407;44.966;19.622;2023-06-26T00:10:56;100748.94;;;19.34;91.74
80102;BME280;69407;44.966;19.622;2023-06-26T00:13:23;100742.59;;;19.46;90.69
80102;BME280;69407;44.966;19.622;2023-06-26T00:15:49;100741.88;;;19.33;91.68
80102;BME280;69407;44.966;19.622;2023-06-26T00:18:14;100742.13;;;19.30;92.17
80102;BME280;69407;44.966;19.622;2023-06-26T00:20:40;100738.22;;;19.34;91.46
80102;BME280;69407;44.966;19.622;2023-06-26T00:23:05;100738.34;;;19.44;91.40
80102;BME280;69407;44.966;19.622;2023-06-26T00:25:33;100737.25;;;19.57;90.78
80102;BME280;69407;44.966;19.622;2023-06-26T00:27:59;100735.91;;;19.52;90.18
80102;BME280;69407;44.966;19.622;2023-06-26T00:30:24;100735.53;;;19.34;91.08
80102;BME280;69407;44.966;19.622;2023-06-26T00:32:50;100735.41;;;19.47;90.96
80102;BME280;69407;44.966;19.622;2023-06-26T00:35:16;100737.09;;;19.48;90.36
80102;BME280;69407;44.966;19.622;2023-06-26T00:37:41;100744.16;;;19.49;90.64
80102;BME280;69407;44.966;19.622;2023-06-26T00:40:07;100739.22;;;19.22;91.82
80102;BME280;69407;44.966;19.622;2023-06-26T00:42:33;100733.84;;;19.11;92.88
80102;BME280;69407;44.966;19.622;2023-06-26T00:44:58;100727.91;;;19.18;92.12
80102;BME280;69407;44.966;19.622;2023-06-26T00:47:24;100724.72;;;19.13;92.41
80102;BME280;69407;44.966;19.622;2023-06-26T00:49:51;100720.91;;;19.49;90.48
80102;BME280;69407;44.966;19.622;2023-06-26T00:52:17;100721.88;;;19.48;89.70
80102;BME280;69407;44.966;19.622;2023-06-26T00:54:43;100713.25;;;19.45;89.95
80102;BME280;69407;44.966;19.622;2023-06-26T00:57:08;100723.00;;;19.23;91.67
80102;BME280;69407;44.966;19.622;2023-06-26T00:59:34;100720.31;;;19.23;91.60
80102;BME280;69407;44.966;19.622;2023-06-26T01:02:00;100721.31;;;19.11;92.43
80102;BME280;69407;44.966;19.622;2023-06-26T01:04:26;100732.88;;;19.12;92.32
80102;BME280;69407;44.966;19.622;2023-06-26T01:06:53;100730.69;;;19.06;93.09
80102;BME280;69407;44.966;19.622;2023-06-26T01:09:20;100728.50;;;18.99;93.62
80102;BME280;69407;44.966;19.622;2023-06-26T01:11:46;100725.94;;;18.98;93.60
80102;BME280;69407;44.966;19.622;2023-06-26T01:14:12;100724.25;;;18.97;93.35
80102;BME280;69407;44.966;19.622;2023-06-26T01:16:39;100721.44;;;18.87;93.89
80102;BME280;69407;44.966;19.622;2023-06-26T01:19:11;100716.69;;;18.80;94.11
80102;BME280;69407;44.966;19.622;2023-06-26T01:21:42;100722.91;;;19.02;92.83
80102;BME280;69407;44.966;19.622;2023-06-26T01:24:15;100722.66;;;18.83;93.78
80102;BME280;69407;44.966;19.622;2023-06-26T01:26:46;100726.44;;;18.81;93.94
80102;BME280;69407;44.966;19.622;2023-06-26T01:29:15;100730.94;;;18.80;94.59
80102;BME280;69407;44.966;19.622;2023-06-26T01:31:41;100732.25;;;18.74;95.00
80102;BME280;69407;44.966;19.622;2023-06-26T01:34:08;100730.63;;;18.61;96.83
80102;BME280;69407;44.966;19.622;2023-06-26T01:36:33;100722.38;;;18.64;96.12
80102;BME280;69407;44.966;19.622;2023-06-26T01:38:59;100728.88;;;18.49;97.97
80102;BME280;69407;44.966;19.622;2023-06-26T01:41:24;100721.94;;;18.81;94.80
80102;BME280;69407;44.966;19.622;2023-06-26T01:49:19;100727.53;;;18.32;99.47
80102;BME280;69407;44.966;19.622;2023-06-26T01:52:04;100723.06;;;18.55;97.82
80102;BME280;69407;44.966;19.622;2023-06-26T01:54:38;100721.56;;;18.39;97.90
80102;BME280;69407;44.966;19.622;2023-06-26T01:57:05;100712.81;;;18.37;99.18
80102;BME280;69407;44.966;19.622;2023-06-26T01:59:34;100715.72;;;18.34;99.84
80102;BME280;69407;44.966;19.622;2023-06-26T02:02:07;100714.34;;;18.29;100.00
80102;BME280;69407;44.966;19.622;2023-06-26T02:04:32;100709.28;;;18.37;99.67
80102;BME280;69407;44.966;19.622;2023-06-26T02:06:57;100711.22;;;18.35;98.48
80102;BME280;69407;44.966;19.622;2023-06-26T02:09:23;100716.50;;;18.59;97.06
80102;BME280;69407;44.966;19.622;2023-06-26T02:11:48;100707.31;;;18.74;96.02
80102;BME280;69407;44.966;19.622;2023-06-26T02:14:14;100716.91;;;18.77;95.43
80102;BME280;69407;44.966;19.622;2023-06-26T02:16:39;100712.72;;;18.50;97.26
80102;BME280;69407;44.966;19.622;2023-06-26T02:19:05;100714.03;;;18.33;99.06
80102;BME280;69407;44.966;19.622;2023-06-26T02:21:30;100713.69;;;18.14;100.00
80102;BME280;69407;44.966;19.622;2023-06-26T02:23:55;100714.25;;;18.30;99.93
80102;BME280;69407;44.966;19.622;2023-06-26T02:26:21;100710.63;;;18.31;99.49
80102;BME280;69407;44.966;19.622;2023-06-26T02:28:46;100718.41;;;18.34;100.00
80102;BME280;69407;44.966;19.622;2023-06-26T02:31:12;100718.63;;;18.31;98.90
80102;BME280;69407;44.966;19.622;2023-06-26T02:33:37;100711.81;;;18.38;100.00
80102;BME280;69407;44.966;19.622;2023-06-26T02:36:04;100711.34;;;18.33;99.35
80102;BME280;69407;44.966;19.622;2023-06-26T02:38:29;100711.94;;;18.37;99.15
80102;BME280;69407;44.966;19.622;2023-06-26T02:40:55;100714.59;;;18.26;100.00
80102;BME280;69407;44.966;19.622;2023-06-26T02:43:20;100710.81;;;18.28;100.00
80102;BME280;69407;44.966;19.622;2023-06-26T02:45:46;100712.69;;;18.04;100.00
80102;BME280;69407;44.966;19.622;2023-06-26T02:48:11;100713.25;;;18.20;100.00
80102;BME280;69407;44.966;19.622;2023-06-26T02:50:36;100714.19;;;18.08;100.00
80102;BME280;69407;44.966;19.622;2023-06-26T02:53:02;100712.56;;;18.40;99.31
80102;BME280;69407;44.966;19.622;2023-06-26T02:55:28;100714.22;;;18.65;96.40
80102;BME280;69407;44.966;19.622;2023-06-26T02:57:53;100719.66;;;18.06;100.00
80102;BME280;69407;44.966;19.622;2023-06-26T03:00:19;100712.84;;;18.49;97.98
80102;BME280;69407;44.966;19.622;2023-06-26T03:02:44;100720.69;;;18.28;98.60
80102;BME280;69407;44.966;19.622;2023-06-26T03:05:09;100721.25;;;18.09;99.87
80102;BME280;69407;44.966;19.622;2023-06-26T03:07:35;100710.03;;;18.50;97.63
80102;BME280;69407;44.966;19.622;2023-06-26T03:10:00;100720.34;;;18.32;99.05
80102;BME280;69407;44.966;19.622;2023-06-26T03:12:26;100721.16;;;18.22;99.51
80102;BME280;69407;44.966;19.622;2023-06-26T03:14:51;100722.13;;;18.21;100.00
80102;BME280;69407;44.966;19.622;2023-06-26T03:17:17;100730.31;;;17.95;100.00
80102;BME280;69407;44.966;19.622;2023-06-26T03:19:42;100724.44;;;18.25;99.06
80102;BME280;69407;44.966;19.622;2023-06-26T03:22:08;100732.22;;;18.28;99.57
80102;BME280;69407;44.966;19.622;2023-06-26T03:24:33;100723.88;;;18.33;98.95
80102;BME280;69407;44.966;19.622;2023-06-26T03:26:59;100728.41;;;18.43;97.30
80102;BME280;69407;44.966;19.622;2023-06-26T03:29:25;100727.00;;;18.27;98.43
80102;BME280;69407;44.966;19.622;2023-06-26T03:31:50;100725.41;;;18.24;99.98
80102;BME280;69407;44.966;19.622;2023-06-26T03:34:16;100725.53;;;18.23;99.56
80102;BME280;69407;44.966;19.622;2023-06-26T03:36:41;100723.03;;;18.32;98.28
80102;BME280;69407;44.966;19.622;2023-06-26T03:39:07;100722.03;;;18.33;98.66
80102;BME280;69407;44.966;19.622;2023-06-26T03:41:32;100718.88;;;18.39;97.17
80102;BME280;69407;44.966;19.622;2023-06-26T03:43:58;100723.66;;;18.47;96.81
80102;BME280;69407;44.966;19.622;2023-06-26T03:46:25;100730.41;;;18.29;97.27
80102;BME280;69407;44.966;19.622;2023-06-26T03:48:51;100728.16;;;18.11;98.60
80102;BME280;69407;44.966;19.622;2023-06-26T03:51:16;100733.69;;;18.21;99.06
80102;BME280;69407;44.966;19.622;2023-06-26T03:53:42;100728.13;;;18.35;99.28
80102;BME280;69407;44.966;19.622;2023-06-26T03:56:07;100735.50;;;18.21;98.68
80102;BME280;69407;44.966;19.622;2023-06-26T03:58:32;100726.69;;;18.07;100.00
80102;BME280;69407;44.966;19.622;2023-06-26T04:00:58;100734.66;;;18.20;98.99
80102;BME280;69407;44.966;19.622;2023-06-26T04:03:24;100735.47;;;18.44;98.89
80102;BME280;69407;44.966;19.622;2023-06-26T04:05:49;100732.09;;;18.65;96.55
80102;BME280;69407;44.966;19.622;2023-06-26T04:08:15;100730.75;;;18.59;96.51
80102;BME280;69407;44.966;19.622;2023-06-26T04:10:40;100736.56;;;18.42;97.79
80102;BME280;69407;44.966;19.622;2023-06-26T04:13:06;100734.03;;;18.63;96.38
80102;BME280;69407;44.966;19.622;2023-06-26T04:15:31;100738.88;;;18.47;98.07
80102;BME280;69407;44.966;19.622;2023-06-26T04:17:57;100739.75;;;18.58;98.03
80102;BME280;69407;44.966;19.622;2023-06-26T04:20:22;100739.88;;;18.57;96.97
80102;BME280;69407;44.966;19.622;2023-06-26T04:22:48;100737.97;;;18.70;96.75
80102;BME280;69407;44.966;19.622;2023-06-26T04:25:13;100738.38;;;18.53;98.61
80102;BME280;69407;44.966;19.622;2023-06-26T04:27:39;100741.53;;;18.47;98.43
80102;BME280;69407;44.966;19.622;2023-06-26T04:30:05;100737.91;;;18.59;98.49
80102;BME280;69407;44.966;19.622;2023-06-26T04:32:31;100738.72;;;18.94;94.83
80102;BME280;69407;44.966;19.622;2023-06-26T04:34:56;100748.16;;;18.65;97.61
80102;BME280;69407;44.966;19.622;2023-06-26T04:37:22;100742.81;;;18.65;98.83
80102;BME280;69407;44.966;19.622;2023-06-26T04:39:48;100746.97;;;18.69;97.83
80102;BME280;69407;44.966;19.622;2023-06-26T04:42:13;100744.22;;;19.04;95.52
80102;BME280;69407;44.966;19.622;2023-06-26T04:44:39;100751.53;;;18.91;96.41
80102;BME280;69407;44.966;19.622;2023-06-26T04:47:06;100748.56;;;18.83;96.73
80102;BME280;69407;44.966;19.622;2023-06-26T04:49:32;100749.91;;;18.88;97.16
80102;BME280;69407;44.966;19.622;2023-06-26T04:51:57;100746.63;;;18.96;97.23
80102;BME280;69407;44.966;19.622;2023-06-26T04:54:25;100755.66;;;18.95;96.56
80102;BME280;69407;44.966;19.622;2023-06-26T04:56:51;100750.16;;;18.85;97.41
80102;BME280;69407;44.966;19.622;2023-06-26T04:59:16;100748.34;;;19.08;96.22
80102;BME280;69407;44.966;19.622;2023-06-26T05:01:42;100761.03;;;19.17;95.25
80102;BME280;69407;44.966;19.622;2023-06-26T05:04:09;100752.72;;;19.20;94.96
80102;BME280;69407;44.966;19.622;2023-06-26T05:06:34;100755.53;;;19.41;93.40
80102;BME280;69407;44.966;19.622;2023-06-26T05:09:00;100763.91;;;19.37;94.13
80102;BME280;69407;44.966;19.622;2023-06-26T05:11:25;100766.25;;;19.41;93.30
80102;BME280;69407;44.966;19.622;2023-06-26T05:13:51;100768.22;;;19.39;93.91
80102;BME280;69407;44.966;19.622;2023-06-26T05:16:16;100756.38;;;19.42;93.79
80102;BME280;69407;44.966;19.622;2023-06-26T05:18:42;100759.66;;;19.45;94.25
80102;BME280;69407;44.966;19.622;2023-06-26T05:21:07;100755.75;;;19.60;92.13
80102;BME280;69407;44.966;19.622;2023-06-26T05:23:35;100753.78;;;19.74;91.76
80102;BME280;69407;44.966;19.622;2023-06-26T05:26:02;100759.88;;;19.76;91.16
80102;BME280;69407;44.966;19.622;2023-06-26T05:28:28;100759.38;;;19.82;91.13
80102;BME280;69407;44.966;19.622;2023-06-26T05:30:59;100757.66;;;19.81;91.36
80102;BME280;69407;44.966;19.622;2023-06-26T05:33:26;100753.00;;;19.94;91.50
80102;BME280;69407;44.966;19.622;2023-06-26T05:35:52;100761.63;;;19.98;90.58
80102;BME280;69407;44.966;19.622;2023-06-26T05:38:19;100756.34;;;20.07;90.29
80102;BME280;69407;44.966;19.622;2023-06-26T05:40:45;100752.81;;;20.39;88.08
80102;BME280;69407;44.966;19.622;2023-06-26T05:43:10;100759.03;;;20.39;87.99
80102;BME280;69407;44.966;19.622;2023-06-26T05:45:36;100759.38;;;20.46;87.83
80102;BME280;69407;44.966;19.622;2023-06-26T05:48:01;100763.91;;;20.45;87.33
80102;BME280;69407;44.966;19.622;2023-06-26T05:50:28;100764.16;;;20.42;88.74
80102;BME280;69407;44.966;19.622;2023-06-26T05:52:54;100754.66;;;20.59;87.40
80102;BME280;69407;44.966;19.622;2023-06-26T05:55:20;100764.09;;;20.54;89.14
80102;BME280;69407;44.966;19.622;2023-06-26T05:57:46;100763.91;;;20.66;87.44
80102;BME280;69407;44.966;19.622;2023-06-26T06:00:12;100771.91;;;20.77;87.40
80102;BME280;69407;44.966;19.622;2023-06-26T06:02:39;100768.00;;;20.91;86.03
80102;BME280;69407;44.966;19.622;2023-06-26T06:05:05;100766.09;;;21.03;86.46
80102;BME280;69407;44.966;19.622;2023-06-26T06:07:34;100771.41;;;20.93;86.48
80102;BME280;69407;44.966;19.622;2023-06-26T06:10:02;100767.28;;;21.10;85.76
80102;BME280;69407;44.966;19.622;2023-06-26T06:12:28;100770.53;;;21.14;84.82
80102;BME280;69407;44.966;19.622;2023-06-26T06:14:53;100771.13;;;21.17;85.60
80102;BME280;69407;44.966;19.622;2023-06-26T06:17:20;100776.28;;;21.30;85.07
80102;BME280;69407;44.966;19.622;2023-06-26T06:19:46;100772.50;;;21.42;84.60
80102;BME280;69407;44.966;19.622;2023-06-26T06:22:11;100774.25;;;21.53;84.00
80102;BME280;69407;44.966;19.622;2023-06-26T06:24:37;100776.00;;;21.63;81.73
80102;BME280;69407;44.966;19.622;2023-06-26T06:27:03;100774.13;;;21.54;82.28
80102;BME280;69407;44.966;19.622;2023-06-26T06:29:28;100773.28;;;21.63;82.14
80102;BME280;69407;44.966;19.622;2023-06-26T06:31:54;100772.22;;;21.85;79.98
80102;BME280;69407;44.966;19.622;2023-06-26T06:34:19;100763.09;;;21.67;81.03
80102;BME280;69407;44.966;19.622;2023-06-26T06:36:45;100765.28;;;22.02;79.87
80102;BME280;69407;44.966;19.622;2023-06-26T06:39:10;100760.09;;;22.30;79.75
80102;BME280;69407;44.966;19.622;2023-06-26T06:41:36;100759.34;;;21.99;80.52
80102;BME280;69407;44.966;19.622;2023-06-26T06:44:01;100762.94;;;22.18;79.61
80102;BME280;69407;44.966;19.622;2023-06-26T06:46:27;100758.66;;;22.55;79.34
80102;BME280;69407;44.966;19.622;2023-06-26T06:48:53;100759.38;;;22.57;78.65
80102;BME280;69407;44.966;19.622;2023-06-26T06:51:18;100763.44;;;22.80;77.44
80102;BME280;69407;44.966;19.622;2023-06-26T06:53:44;100757.06;;;22.62;77.32
80102;BME280;69407;44.966;19.622;2023-06-26T06:56:09;100765.13;;;22.81;76.06
80102;BME280;69407;44.966;19.622;2023-06-26T06:58:35;100760.75;;;22.80;76.80
80102;BME280;69407;44.966;19.622;2023-06-26T07:01:01;100765.25;;;22.89;75.33
80102;BME280;69407;44.966;19.622;2023-06-26T07:03:29;100758.06;;;22.90;75.66
80102;BME280;69407;44.966;19.622;2023-06-26T07:05:55;100760.78;;;23.17;74.51
80102;BME280;69407;44.966;19.622;2023-06-26T07:08:21;100764.22;;;23.09;74.30
80102;BME280;69407;44.966;19.622;2023-06-26T07:10:46;100766.09;;;23.36;74.71
80102;BME280;69407;44.966;19.622;2023-06-26T07:13:12;100758.38;;;23.51;74.74
80102;BME280;69407;44.966;19.622;2023-06-26T07:15:37;100768.59;;;23.48;73.28
80102;BME280;69407;44.966;19.622;2023-06-26T07:18:03;100771.97;;;23.50;73.63
80102;BME280;69407;44.966;19.622;2023-06-26T07:20:28;100765.19;;;23.46;73.07
80102;BME280;69407;44.966;19.622;2023-06-26T07:22:54;100760.59;;;23.83;71.57
80102;BME280;69407;44.966;19.622;2023-06-26T07:25:19;100760.91;;;23.80;71.02
80102;BME280;69407;44.966;19.622;2023-06-26T07:27:44;100754.66;;;23.97;69.25
80102;BME280;69407;44.966;19.622;2023-06-26T07:30:10;100760.88;;;24.25;69.38
80102;BME280;69407;44.966;19.622;2023-06-26T07:32:37;100764.00;;;23.85;69.75
80102;BME280;69407;44.966;19.622;2023-06-26T07:35:03;100766.50;;;24.50;68.62
80102;BME280;69407;44.966;19.622;2023-06-26T07:37:29;100756.72;;;24.49;67.46
80102;BME280;69407;44.966;19.622;2023-06-26T07:39:54;100758.94;;;24.79;64.72
80102;BME280;69407;44.966;19.622;2023-06-26T07:42:20;100757.91;;;24.72;66.43
80102;BME280;69407;44.966;19.622;2023-06-26T07:44:45;100762.13;;;24.75;63.25
80102;BME280;69407;44.966;19.622;2023-06-26T07:47:11;100758.34;;;24.94;63.35
80102;BME280;69407;44.966;19.622;2023-06-26T07:49:37;100750.56;;;25.51;62.64
80102;BME280;69407;44.966;19.622;2023-06-26T07:52:04;100765.56;;;25.37;61.79
80102;BME280;69407;44.966;19.622;2023-06-26T07:54:30;100763.41;;;25.15;62.02
80102;BME280;69407;44.966;19.622;2023-06-26T07:57:00;100756.09;;;25.83;60.49
80102;BME280;69407;44.966;19.622;2023-06-26T07:59:27;100755.44;;;25.81;60.13
80102;BME280;69407;44.966;19.622;2023-06-26T08:01:54;100766.97;;;26.16;57.04
80102;BME280;69407;44.966;19.622;2023-06-26T08:04:21;100749.53;;;26.83;56.61
80102;BME280;69407;44.966;19.622;2023-06-26T08:06:49;100760.09;;;27.34;54.37
80102;BME280;69407;44.966;19.622;2023-06-26T08:09:14;100757.16;;;27.04;53.96
80102;BME280;69407;44.966;19.622;2023-06-26T08:11:40;100756.66;;;27.48;52.93
80102;BME280;69407;44.966;19.622;2023-06-26T08:14:05;100758.44;;;27.72;52.51
80102;BME280;69407;44.966;19.622;2023-06-26T08:16:31;100758.31;;;27.57;51.57
80102;BME280;69407;44.966;19.622;2023-06-26T08:18:56;100764.47;;;27.43;54.52
80102;BME280;69407;44.966;19.622;2023-06-26T08:21:22;100772.16;;;27.79;53.33
80102;BME280;69407;44.966;19.622;2023-06-26T08:23:47;100769.88;;;29.56;46.44
80102;BME280;69407;44.966;19.622;2023-06-26T08:26:13;100761.16;;;33.25;37.86
80102;BME280;69407;44.966;19.622;2023-06-26T08:28:39;100761.81;;;31.60;39.64
80102;BME280;69407;44.966;19.622;2023-06-26T08:31:04;100760.16;;;30.40;42.57
80102;BME280;69407;44.966;19.622;2023-06-26T08:33:30;100761.84;;;29.33;43.67
80102;BME280;69407;44.966;19.622;2023-06-26T08:35:55;100760.28;;;28.86;47.71
80102;BME280;69407;44.966;19.622;2023-06-26T08:38:21;100767.41;;;27.33;50.38
80102;BME280;69407;44.966;19.622;2023-06-26T08:40:47;100763.00;;;27.71;47.65
80102;BME280;69407;44.966;19.622;2023-06-26T08:43:13;100757.44;;;28.19;49.55
80102;BME280;69407;44.966;19.622;2023-06-26T08:45:38;100753.47;;;28.52;47.79
80102;BME280;69407;44.966;19.622;2023-06-26T08:48:07;100767.16;;;29.41;45.28
80102;BME280;69407;44.966;19.622;2023-06-26T08:50:34;100760.13;;;28.50;47.98
80102;BME280;69407;44.966;19.622;2023-06-26T08:55:52;100755.56;;;28.27;45.70
80102;BME280;69407;44.966;19.622;2023-06-26T08:58:18;100758.59;;;28.01;46.43
80102;BME280;69407;44.966;19.622;2023-06-26T09:00:44;100759.09;;;27.74;47.86
80102;BME280;69407;44.966;19.622;2023-06-26T09:03:10;100758.44;;;27.72;46.28
80102;BME280;69407;44.966;19.622;2023-06-26T09:05:35;100757.94;;;27.29;49.38
80102;BME280;69407;44.966;19.622;2023-06-26T09:08:01;100758.66;;;28.62;47.52
80102;BME280;69407;44.966;19.622;2023-06-26T09:10:27;100755.63;;;29.39;46.42
80102;BME280;69407;44.966;19.622;2023-06-26T09:12:55;100756.75;;;29.15;48.31
80102;BME280;69407;44.966;19.622;2023-06-26T09:15:22;100744.97;;;29.08;43.83
80102;BME280;69407;44.966;19.622;2023-06-26T09:17:49;100748.03;;;29.19;47.93
80102;BME280;69407;44.966;19.622;2023-06-26T09:20:14;100750.00;;;29.55;43.75
80102;BME280;69407;44.966;19.622;2023-06-26T09:22:47;100750.94;;;29.03;44.64
80102;BME280;69407;44.966;19.622;2023-06-26T09:25:12;100755.88;;;28.24;45.31
80102;BME280;69407;44.966;19.622;2023-06-26T09:27:39;100748.56;;;27.40;48.25
80102;BME280;69407;44.966;19.622;2023-06-26T09:30:06;100746.50;;;27.81;47.87
80102;BME280;69407;44.966;19.622;2023-06-26T09:32:36;100748.94;;;27.29;50.27
80102;BME280;69407;44.966;19.622;2023-06-26T09:35:03;100752.56;;;27.52;48.31
80102;BME280;69407;44.966;19.622;2023-06-26T09:37:28;100753.53;;;27.20;50.10
80102;BME280;69407;44.966;19.622;2023-06-26T09:39:54;100744.03;;;27.63;49.93
80102;BME280;69407;44.966;19.622;2023-06-26T09:42:20;100743.91;;;28.56;46.60
80102;BME280;69407;44.966;19.622;2023-06-26T09:44:46;100737.16;;;29.05;47.07
80102;BME280;69407;44.966;19.622;2023-06-26T09:47:12;100744.53;;;29.40;44.55
80102;BME280;69407;44.966;19.622;2023-06-26T09:49:42;100738.94;;;29.12;44.95
80102;BME280;69407;44.966;19.622;2023-06-26T09:52:14;100735.88;;;28.78;47.20
80102;BME280;69407;44.966;19.622;2023-06-26T09:54:40;100736.81;;;27.87;48.28
80102;BME280;69407;44.966;19.622;2023-06-26T09:57:13;100740.09;;;27.97;48.34
80102;BME280;69407;44.966;19.622;2023-06-26T09:59:40;100739.00;;;27.52;49.98
80102;BME280;69407;44.966;19.622;2023-06-26T10:02:06;100733.06;;;27.49;48.29
80102;BME280;69407;44.966;19.622;2023-06-26T10:04:32;100734.16;;;27.31;47.25
80102;BME280;69407;44.966;19.622;2023-06-26T10:06:59;100730.03;;;27.83;45.39
80102;BME280;69407;44.966;19.622;2023-06-26T10:09:27;100729.28;;;27.66;46.58
80102;BME280;69407;44.966;19.622;2023-06-26T10:14:32;100721.69;;;28.53;46.38
80102;BME280;69407;44.966;19.622;2023-06-26T10:17:01;100724.53;;;28.59;44.04
80102;BME280;69407;44.966;19.622;2023-06-26T10:19:30;100725.03;;;29.22;45.72
80102;BME280;69407;44.966;19.622;2023-06-26T10:21:58;100727.72;;;28.63;46.64
80102;BME280;69407;44.966;19.622;2023-06-26T10:24:24;100721.94;;;28.20;44.86
80102;BME280;69407;44.966;19.622;2023-06-26T10:26:57;100726.47;;;28.05;47.42
80102;BME280;69407;44.966;19.622;2023-06-26T10:29:25;100725.84;;;27.72;47.41
80102;BME280;69407;44.966;19.622;2023-06-26T10:31:52;100721.00;;;27.12;48.34
80102;BME280;69407;44.966;19.622;2023-06-26T10:34:20;100724.59;;;26.96;45.84
80102;BME280;69407;44.966;19.622;2023-06-26T10:36:46;100714.25;;;27.08;45.86
80102;BME280;69407;44.966;19.622;2023-06-26T10:39:13;100711.72;;;28.45;45.57
80102;BME280;69407;44.966;19.622;2023-06-26T10:41:40;100705.72;;;28.87;42.40
80102;BME280;69407;44.966;19.622;2023-06-26T10:44:16;100712.47;;;29.06;41.05
80102;BME280;69407;44.966;19.622;2023-06-26T10:46:51;100705.56;;;28.81;43.37
80102;BME280;69407;44.966;19.622;2023-06-26T10:49:18;100710.38;;;29.38;40.82
80102;BME280;69407;44.966;19.622;2023-06-26T10:51:48;100704.81;;;29.46;41.61
80102;BME280;69407;44.966;19.622;2023-06-26T10:54:15;100711.09;;;28.96;44.83
80102;BME280;69407;44.966;19.622;2023-06-26T10:56:50;100697.91;;;28.84;44.28
80102;BME280;69407;44.966;19.622;2023-06-26T10:59:21;100703.25;;;29.07;43.95
80102;BME280;69407;44.966;19.622;2023-06-26T11:01:54;100701.63;;;28.54;47.37
80102;BME280;69407;44.966;19.622;2023-06-26T11:04:36;100700.09;;;28.37;44.35
80102;BME280;69407;44.966;19.622;2023-06-26T11:15:07;100686.63;;;28.58;43.26
80102;BME280;69407;44.966;19.622;2023-06-26T11:17:35;100690.03;;;29.34;42.45
80102;BME280;69407;44.966;19.622;2023-06-26T11:20:00;100689.63;;;29.37;44.11
80102;BME280;69407;44.966;19.622;2023-06-26T11:22:26;100689.53;;;29.81;40.76
80102;BME280;69407;44.966;19.622;2023-06-26T11:24:53;100683.94;;;29.68;41.29
80102;BME280;69407;44.966;19.622;2023-06-26T11:27:19;100671.47;;;30.44;41.42
80102;BME280;69407;44.966;19.622;2023-06-26T11:29:48;100675.72;;;30.25;38.19
80102;BME280;69407;44.966;19.622;2023-06-26T11:32:15;100688.13;;;29.34;40.33
80102;BME280;69407;44.966;19.622;2023-06-26T11:34:40;100695.41;;;28.98;42.93
80102;BME280;69407;44.966;19.622;2023-06-26T11:37:08;100684.38;;;29.35;42.85
80102;BME280;69407;44.966;19.622;2023-06-26T11:39:34;100680.94;;;29.12;43.65
80102;BME280;69407;44.966;19.622;2023-06-26T11:42:00;100684.41;;;28.91;42.77
80102;BME280;69407;44.966;19.622;2023-06-26T11:44:29;100679.13;;;28.60;44.21
80102;BME280;69407;44.966;19.622;2023-06-26T11:46:56;100674.84;;;28.28;44.39
80102;BME280;69407;44.966;19.622;2023-06-26T11:49:22;100677.66;;;29.02;42.27
80102;BME280;69407;44.966;19.622;2023-06-26T11:51:48;100679.78;;;29.36;44.56
80102;BME280;69407;44.966;19.622;2023-06-26T11:54:14;100672.72;;;29.41;41.73
80102;BME280;69407;44.966;19.622;2023-06-26T11:56:40;100666.28;;;29.64;40.44
80102;BME280;69407;44.966;19.622;2023-06-26T11:59:07;100663.31;;;29.59;41.47
80102;BME280;69407;44.966;19.622;2023-06-26T12:01:43;100673.88;;;29.32;40.44
80102;BME280;69407;44.966;19.622;2023-06-26T12:04:16;100666.25;;;30.21;40.20
80102;BME280;69407;44.966;19.622;2023-06-26T12:06:46;100680.31;;;30.03;40.58
80102;BME280;69407;44.966;19.622;2023-06-26T12:09:13;100662.94;;;30.54;42.44
80102;BME280;69407;44.966;19.622;2023-06-26T12:11:41;100662.69;;;30.49;42.24
80102;BME280;69407;44.966;19.622;2023-06-26T12:14:08;100664.47;;;30.35;40.69
80102;BME280;69407;44.966;19.622;2023-06-26T12:16:35;100667.22;;;30.14;40.37
80102;BME280;69407;44.966;19.622;2023-06-26T12:19:01;100664.44;;;29.86;39.92
80102;BME280;69407;44.966;19.622;2023-06-26T12:21:45;100657.66;;;30.24;39.73
80102;BME280;69407;44.966;19.622;2023-06-26T12:24:20;100668.63;;;29.88;40.73
80102;BME280;69407;44.966;19.622;2023-06-26T12:26:49;100673.94;;;29.39;42.86
80102;BME280;69407;44.966;19.622;2023-06-26T12:29:18;100667.41;;;29.91;42.08
80102;BME280;69407;44.966;19.622;2023-06-26T12:31:53;100663.50;;;29.79;44.46
80102;BME280;69407;44.966;19.622;2023-06-26T12:34:33;100660.00;;;29.63;43.96
80102;BME280;69407;44.966;19.622;2023-06-26T12:37:07;100669.13;;;28.90;44.32
80102;BME280;69407;44.966;19.622;2023-06-26T12:39:53;100666.91;;;29.44;45.33
80102;BME280;69407;44.966;19.622;2023-06-26T12:42:21;100657.38;;;29.70;44.26
80102;BME280;69407;44.966;19.622;2023-06-26T12:44:50;100655.16;;;29.44;41.22
80102;BME280;69407;44.966;19.622;2023-06-26T12:47:17;100658.13;;;29.64;42.70
80102;BME280;69407;44.966;19.622;2023-06-26T12:49:45;100659.56;;;29.81;43.32
80102;BME280;69407;44.966;19.622;2023-06-26T12:52:15;100653.78;;;29.33;42.35
80102;BME280;69407;44.966;19.622;2023-06-26T12:54:42;100659.38;;;28.96;45.13
80102;BME280;69407;44.966;19.622;2023-06-26T12:57:08;100649.50;;;29.60;45.11